createdAt,value
2019-05-07T00:08:02.945Z,10.6
2019-05-07T00:18:02.882Z,10.6
2019-05-07T00:27:59.769Z,10.5
2019-05-07T00:37:58.981Z,10.3
2019-05-07T00:54:19.649Z,10.3
2019-05-07T01:04:18.870Z,10.3
2019-05-07T01:14:18.083Z,10.3
2019-05-07T01:29:53.801Z,10.2
2019-05-07T01:39:53.152Z,10.2
2019-05-07T01:49:52.361Z,10.3
2019-05-07T01:59:52.708Z,10.2
2019-05-07T02:09:51.882Z,10.3
2019-05-07T02:19:49.874Z,10.3
2019-05-07T02:29:49.131Z,10.3
2019-05-07T02:39:48.470Z,10.3
2019-05-07T02:57:43.125Z,10.4
2019-05-07T03:07:38.951Z,10.3
2019-05-07T03:17:38.160Z,10.2
2019-05-07T03:27:37.370Z,10.3
2019-05-07T03:37:36.766Z,9.2
2019-05-07T03:47:35.797Z,8.6
2019-05-07T03:57:17.577Z,8.3
2019-05-07T04:09:40.244Z,8
2019-05-07T04:25:08.515Z,7.9
2019-05-07T04:35:07.737Z,8
2019-05-07T04:45:06.953Z,8.2
2019-05-07T04:55:06.165Z,8.2
2019-05-07T05:05:05.383Z,8.1
2019-05-07T05:16:33.559Z,8.3
2019-05-07T05:26:32.834Z,8.4
2019-05-07T05:36:32.913Z,8.1
2019-05-07T05:46:31.918Z,8.2
2019-05-07T05:56:32.382Z,8.4
2019-05-07T06:08:32.750Z,8.5
2019-05-07T06:18:32.685Z,8.5
2019-05-07T06:28:32.961Z,8.4
2019-05-07T06:38:31.946Z,8.4
2019-05-07T06:48:38.588Z,8.3
2019-05-07T06:58:28.642Z,8.6
2019-05-07T07:08:27.886Z,8.8
2019-05-07T07:18:27.179Z,8.6
2019-05-07T07:28:26.467Z,8.6
2019-05-07T07:38:25.757Z,8.6
2019-05-07T07:48:28.139Z,8.5
2019-05-07T07:59:42.099Z,8.6
2019-05-07T08:09:39.891Z,8.8
2019-05-07T08:19:39.100Z,9
2019-05-07T08:29:38.315Z,9.1
2019-05-07T08:44:08.030Z,8.9
2019-05-07T08:53:55.457Z,8.9
2019-05-07T09:03:54.667Z,9
2019-05-07T09:18:03.181Z,9.1
2019-05-07T09:28:02.681Z,8.9
2019-05-07T09:43:16.709Z,8.6
2019-05-07T09:59:33.323Z,8.8
2019-05-07T10:09:32.880Z,8.7
2019-05-07T10:19:32.447Z,8.5
2019-05-07T10:29:32.191Z,8.6
2019-05-07T10:45:52.009Z,8.6
2019-05-07T10:55:49.454Z,8.6
2019-05-07T11:05:15.337Z,8.6
2019-05-07T11:15:14.556Z,8.6
2019-05-07T11:25:13.815Z,8.2
2019-05-07T11:33:45.361Z,8.1
2019-05-07T11:43:44.627Z,7.9
2019-05-07T11:53:45.919Z,7.9
2019-05-07T12:03:45.137Z,7.8
2019-05-07T12:12:42.976Z,7.8
2019-05-07T12:22:42.455Z,7.6
2019-05-07T12:36:16.822Z,7.6
2019-05-07T12:46:16.088Z,7.5
2019-05-07T12:56:15.298Z,7.4
2019-05-07T13:12:22.552Z,7.7
2019-05-07T13:22:21.993Z,7.6
2019-05-07T13:33:09.863Z,7.6
2019-05-07T13:43:09.028Z,7.5
2019-05-07T14:00:12.803Z,7.4
2019-05-07T14:21:32.459Z,7.4
2019-05-07T14:31:33.347Z,7.4
2019-05-07T14:41:28.912Z,7.3
2019-05-07T14:51:28.119Z,7.2
2019-05-07T15:01:27.333Z,7.1
2019-05-07T15:11:26.538Z,7.1
2019-05-07T15:21:25.788Z,7
2019-05-07T15:31:25.076Z,7.1
2019-05-07T15:41:24.371Z,7.2
2019-05-07T15:51:23.754Z,7.3
2019-05-07T16:01:22.966Z,7.4
2019-05-07T16:11:23.172Z,7.4
2019-05-07T16:22:03.428Z,7.4
2019-05-07T16:32:01.933Z,7.6
2019-05-07T16:41:59.176Z,7.9
2019-05-07T16:51:58.415Z,8.6
2019-05-07T17:01:57.572Z,9.1
2019-05-07T17:11:56.783Z,9.5
2019-05-07T17:21:55.989Z,9.8
2019-05-07T17:31:55.208Z,10.1
2019-05-07T17:41:54.420Z,10.4
2019-05-07T17:51:53.628Z,10.6
2019-05-07T18:01:45.708Z,10.6
2019-05-07T18:11:44.931Z,10.8
2019-05-07T18:21:44.136Z,10.8
2019-05-07T18:33:09.973Z,10.9
2019-05-07T18:43:09.191Z,10.9
2019-05-07T18:53:08.460Z,11
2019-05-07T19:03:07.606Z,11.1
2019-05-07T19:13:06.818Z,10.9
2019-05-07T19:23:06.026Z,11
2019-05-07T19:33:05.341Z,11
2019-05-07T19:43:04.630Z,11.1
2019-05-07T19:53:03.874Z,11
2019-05-07T20:03:03.517Z,11
2019-05-07T20:13:03.079Z,11.1
2019-05-07T20:23:02.528Z,11.1
2019-05-07T20:33:02.831Z,11.1
2019-05-07T20:43:01.900Z,11.1
2019-05-07T20:52:59.401Z,11.2
2019-05-07T21:02:58.606Z,11.3
2019-05-07T21:13:03.216Z,11.3
2019-05-07T21:28:19.139Z,11.2
2019-05-07T21:38:18.355Z,11.3
2019-05-07T21:48:17.565Z,11.3
2019-05-07T21:58:16.771Z,11.4
2019-05-07T22:08:15.982Z,11.4
2019-05-07T22:18:15.191Z,11.4
2019-05-07T22:28:14.442Z,11.4
2019-05-07T22:38:13.731Z,11.4
2019-05-07T22:48:13.021Z,11.4
2019-05-07T22:58:14.316Z,11.3
2019-05-07T23:08:12.750Z,11.3
2019-05-07T23:19:05.678Z,11.3
2019-05-07T23:29:04.893Z,11.1
2019-05-07T23:39:04.099Z,11.2
2019-05-07T23:49:03.305Z,11.1
2019-05-07T23:59:02.515Z,11.1
